createdAt,value
2023-02-18T00:01:02.884Z,0.60
2023-02-18T00:02:05.166Z,0.70
2023-02-18T00:03:08.141Z,1.10
2023-02-18T00:04:10.143Z,0.70
2023-02-18T00:05:13.245Z,0.80
2023-02-18T00:06:18.823Z,0.63
2023-02-18T00:07:21.774Z,1.23
2023-02-18T00:08:23.753Z,0.98
2023-02-18T00:09:26.802Z,0.75
2023-02-18T00:10:28.738Z,1.00
2023-02-18T00:11:33.623Z,0.70
2023-02-18T00:12:35.567Z,0.70
2023-02-18T00:13:40.446Z,0.60
2023-02-18T00:14:42.371Z,0.80
2023-02-18T00:15:45.406Z,0.60
2023-02-18T00:16:47.394Z,0.80
2023-02-18T00:17:50.306Z,0.85
2023-02-18T00:18:56.064Z,0.77
2023-02-18T00:19:59.064Z,0.80
2023-02-18T00:21:02.985Z,0.77
2023-02-18T00:22:06.120Z,0.80
2023-02-18T00:23:08.058Z,0.80
2023-02-18T00:24:15.154Z,0.70
2023-02-18T00:25:17.364Z,0.82
2023-02-18T00:26:21.286Z,0.70
2023-02-18T00:27:23.316Z,0.85
2023-02-18T00:28:26.309Z,0.85
2023-02-18T00:29:30.594Z,0.60
2023-02-18T00:30:32.622Z,0.98
2023-02-18T00:31:37.822Z,0.80
2023-02-18T00:32:39.800Z,1.17
2023-02-18T00:33:43.461Z,0.73
2023-02-18T00:34:45.404Z,0.90
2023-02-18T00:35:48.401Z,0.80
2023-02-18T00:36:50.374Z,1.08
2023-02-18T00:37:53.823Z,1.10
2023-02-18T00:38:57.956Z,0.70
2023-02-18T00:40:00.900Z,0.90
2023-02-18T00:41:03.410Z,0.80
2023-02-18T00:42:06.645Z,0.70
2023-02-18T00:43:08.860Z,0.93
2023-02-18T00:44:12.873Z,0.82
2023-02-18T00:45:16.535Z,0.70
2023-02-18T00:46:19.765Z,0.85
2023-02-18T00:47:21.782Z,0.80
2023-02-18T00:48:24.732Z,1.15
2023-02-18T00:49:26.840Z,0.73
2023-02-18T00:50:29.767Z,0.80
2023-02-18T00:51:32.105Z,0.77
2023-02-18T00:52:35.039Z,0.70
2023-02-18T00:53:37.893Z,0.80
2023-02-18T00:54:40.883Z,1.00
2023-02-18T00:55:44.734Z,1.00
2023-02-18T00:56:47.680Z,0.98
2023-02-18T00:57:49.586Z,0.90
2023-02-18T00:58:53.155Z,0.80
2023-02-18T00:59:55.108Z,1.10
2023-02-18T01:00:59.411Z,0.70
2023-02-18T01:02:02.327Z,0.60
2023-02-18T01:03:06.290Z,1.10
2023-02-18T01:04:09.361Z,0.80
2023-02-18T01:05:11.487Z,0.80
2023-02-18T01:06:15.106Z,1.00
2023-02-18T01:07:17.024Z,0.77
2023-02-18T01:08:21.623Z,0.73
2023-02-18T01:09:25.836Z,0.85
2023-02-18T01:10:27.851Z,1.00
2023-02-18T01:11:30.857Z,0.95
2023-02-18T01:12:32.845Z,0.70
2023-02-18T01:13:37.688Z,0.80
2023-02-18T01:14:39.602Z,0.80
2023-02-18T01:15:43.254Z,0.70
2023-02-18T01:16:47.616Z,0.70
2023-02-18T01:17:51.814Z,0.70
2023-02-18T01:18:54.800Z,0.70
2023-02-18T01:19:56.833Z,0.50
2023-02-18T01:21:01.242Z,0.90
2023-02-18T01:22:03.662Z,0.85
2023-02-18T01:23:06.640Z,0.77
2023-02-18T01:24:08.562Z,0.90
2023-02-18T01:25:12.573Z,0.80
2023-02-18T01:26:14.561Z,0.82
2023-02-18T01:27:17.555Z,0.90
2023-02-18T01:28:21.401Z,0.68
2023-02-18T01:29:24.375Z,0.80
2023-02-18T01:30:26.382Z,0.80
2023-02-18T01:31:29.528Z,0.90
2023-02-18T01:32:32.895Z,0.95
2023-02-18T01:33:35.902Z,0.95
2023-02-18T01:34:37.899Z,0.73
2023-02-18T01:35:41.762Z,0.90
2023-02-18T01:36:43.723Z,1.05
2023-02-18T01:37:47.632Z,0.88
2023-02-18T01:38:49.594Z,0.65
2023-02-18T01:39:52.535Z,0.85
2023-02-18T01:40:55.013Z,0.75
2023-02-18T01:41:58.018Z,1.00
2023-02-18T01:42:59.954Z,1.10
2023-02-18T01:44:17.275Z,1.00
2023-02-18T01:45:45.662Z,1.05
2023-02-18T01:46:49.351Z,0.80
2023-02-18T01:47:52.788Z,1.02
2023-02-18T01:48:58.675Z,0.85
2023-02-18T01:50:00.655Z,0.80
2023-02-18T01:51:08.019Z,1.10
2023-02-18T01:52:15.670Z,1.00
2023-02-18T01:53:22.777Z,0.75
2023-02-18T01:54:30.935Z,0.80
2023-02-18T01:55:34.160Z,0.90
2023-02-18T01:56:41.996Z,0.70
2023-02-18T01:57:43.926Z,0.98
2023-02-18T01:58:47.128Z,0.90
2023-02-18T01:59:53.188Z,1.10
2023-02-18T02:00:56.227Z,0.73
2023-02-18T02:02:00.189Z,1.00
2023-02-18T02:03:03.671Z,1.02
2023-02-18T02:04:06.780Z,0.93
2023-02-18T02:05:09.109Z,0.90
2023-02-18T02:06:18.986Z,0.82
2023-02-18T02:07:23.585Z,0.70
2023-02-18T02:08:26.739Z,0.80
2023-02-18T02:09:31.087Z,1.10
2023-02-18T02:10:48.663Z,1.10
2023-02-18T02:12:09.420Z,1.00
2023-02-18T02:13:18.450Z,0.80
2023-02-18T02:14:36.794Z,0.85
2023-02-18T02:15:44.453Z,0.85
2023-02-18T02:16:56.409Z,1.00
2023-02-18T02:18:24.226Z,1.23
2023-02-18T02:19:53.847Z,0.90
2023-02-18T02:21:40.198Z,0.70
2023-02-18T02:23:15.879Z,0.88
2023-02-18T02:24:57.450Z,0.90
2023-02-18T02:26:40.793Z,1.15
2023-02-18T02:28:09.778Z,1.10
2023-02-18T02:29:55.190Z,0.80
2023-02-18T02:31:26.046Z,0.95
2023-02-18T02:32:46.020Z,0.85
2023-02-18T02:34:22.292Z,0.93
2023-02-18T02:35:26.388Z,0.80
2023-02-18T02:36:37.962Z,0.90
2023-02-18T02:37:45.604Z,0.70
2023-02-18T02:38:56.188Z,0.98
2023-02-18T02:40:05.674Z,1.00
2023-02-18T02:41:19.336Z,0.90
2023-02-18T02:42:29.905Z,0.77
2023-02-18T02:43:42.043Z,0.85
2023-02-18T02:44:52.995Z,0.70
2023-02-18T02:46:07.796Z,0.80
2023-02-18T02:47:14.615Z,1.00
2023-02-18T02:48:24.244Z,0.93
2023-02-18T02:49:37.588Z,1.08
2023-02-18T02:50:46.357Z,0.70
2023-02-18T02:51:54.100Z,1.00
2023-02-18T02:53:03.482Z,1.15
2023-02-18T02:54:14.874Z,0.85
2023-02-18T02:55:17.933Z,1.10
2023-02-18T02:56:22.656Z,0.88
2023-02-18T02:57:46.328Z,1.10
2023-02-18T02:59:01.259Z,0.88
2023-02-18T03:00:10.269Z,0.95
2023-02-18T03:01:36.553Z,0.70
2023-02-18T03:02:51.476Z,0.90
2023-02-18T03:04:18.012Z,1.10
2023-02-18T03:05:28.197Z,1.10
2023-02-18T03:06:55.710Z,1.08
2023-02-18T03:08:26.068Z,0.90
2023-02-18T03:09:36.227Z,0.80
2023-02-18T03:10:49.853Z,0.80
2023-02-18T03:11:58.618Z,1.10
2023-02-18T03:13:08.907Z,0.95
2023-02-18T03:14:16.588Z,0.68
2023-02-18T03:15:25.966Z,0.90
2023-02-18T03:16:34.849Z,0.85
2023-02-18T03:17:42.819Z,0.90
2023-02-18T03:18:49.678Z,0.90
2023-02-18T03:19:58.741Z,0.80
2023-02-18T03:21:06.408Z,0.90
2023-02-18T03:22:13.956Z,0.70
2023-02-18T03:23:19.450Z,1.15
2023-02-18T03:24:26.379Z,0.80
2023-02-18T03:25:29.860Z,0.88
2023-02-18T03:26:35.501Z,0.77
2023-02-18T03:27:41.083Z,0.80
2023-02-18T03:28:45.515Z,0.82
2023-02-18T03:29:52.767Z,0.80
2023-02-18T03:31:00.426Z,0.80
2023-02-18T03:32:07.816Z,0.88
2023-02-18T03:33:15.564Z,0.73
2023-02-18T03:34:20.900Z,0.77
2023-02-18T03:35:24.456Z,0.80
2023-02-18T03:36:28.614Z,0.85
2023-02-18T03:37:34.682Z,0.80
2023-02-18T03:38:40.856Z,0.60
2023-02-18T03:39:47.384Z,0.88
2023-02-18T03:40:49.891Z,0.95
2023-02-18T03:41:53.017Z,1.05
2023-02-18T03:42:56.636Z,0.77
2023-02-18T03:44:02.474Z,0.80
2023-02-18T03:45:04.916Z,0.50
2023-02-18T03:46:08.426Z,0.70
2023-02-18T03:47:11.063Z,0.75
2023-02-18T03:48:14.173Z,0.65
2023-02-18T03:49:16.200Z,0.88
2023-02-18T03:50:19.511Z,0.60
2023-02-18T03:51:22.213Z,0.60
2023-02-18T03:52:26.539Z,0.85
2023-02-18T03:53:28.535Z,0.60
2023-02-18T03:54:31.510Z,0.70
2023-02-18T03:55:33.472Z,0.60
2023-02-18T03:56:36.856Z,0.77
2023-02-18T03:57:39.016Z,0.60
2023-02-18T03:58:42.063Z,0.80
2023-02-18T03:59:44.299Z,0.77
2023-02-18T04:00:47.229Z,0.73
2023-02-18T04:01:49.135Z,0.88
2023-02-18T04:02:52.063Z,0.80
2023-02-18T04:03:55.522Z,0.70
2023-02-18T04:04:58.491Z,0.60
2023-02-18T04:06:00.450Z,0.77
2023-02-18T04:07:03.455Z,0.60
2023-02-18T04:08:06.778Z,0.75
2023-02-18T04:09:09.798Z,0.60
2023-02-18T04:10:11.985Z,0.73
2023-02-18T04:11:14.929Z,0.50
2023-02-18T04:12:16.953Z,0.60
2023-02-18T04:13:19.954Z,0.70
2023-02-18T04:14:21.872Z,0.68
2023-02-18T04:15:24.884Z,0.70
2023-02-18T04:16:26.904Z,0.60
2023-02-18T04:17:29.862Z,0.80
2023-02-18T04:18:31.838Z,0.63
2023-02-18T04:19:34.792Z,1.13
2023-02-18T04:20:37.446Z,0.70
2023-02-18T04:21:40.382Z,0.73
2023-02-18T04:22:42.399Z,0.68
2023-02-18T04:23:46.683Z,0.63
2023-02-18T04:24:48.623Z,0.52
2023-02-18T04:25:51.576Z,2.28
2023-02-18T04:26:53.483Z,0.40
2023-02-18T04:27:56.474Z,0.60
2023-02-18T04:28:58.472Z,0.70
2023-02-18T04:30:01.434Z,0.65
2023-02-18T04:31:03.657Z,0.80
2023-02-18T04:32:06.742Z,0.80
2023-02-18T04:33:08.802Z,0.80
2023-02-18T04:34:11.783Z,0.70
2023-02-18T04:35:13.730Z,0.60
2023-02-18T04:36:16.684Z,0.82
2023-02-18T04:37:19.658Z,0.68
2023-02-18T04:38:21.759Z,0.70
2023-02-18T04:39:26.241Z,0.60
2023-02-18T04:40:30.626Z,0.70
2023-02-18T04:41:33.572Z,0.65
2023-02-18T04:42:35.695Z,0.60
2023-02-18T04:43:38.584Z,0.70
2023-02-18T04:44:40.535Z,1.10
2023-02-18T04:45:43.458Z,0.95
2023-02-18T04:46:45.664Z,0.80
2023-02-18T04:47:48.624Z,0.80
2023-02-18T04:48:50.535Z,0.80
2023-02-18T04:49:53.511Z,0.73
2023-02-18T04:50:56.043Z,0.70
2023-02-18T04:51:58.995Z,0.70
2023-02-18T04:53:00.907Z,0.70
2023-02-18T04:54:03.856Z,0.70
2023-02-18T04:55:08.128Z,0.80
2023-02-18T04:56:11.231Z,0.80
2023-02-18T04:57:13.184Z,0.70
2023-02-18T04:58:16.077Z,1.02
2023-02-18T04:59:18.032Z,0.90
2023-02-18T05:00:21.775Z,0.73
2023-02-18T05:01:23.827Z,0.60
2023-02-18T05:02:26.951Z,0.85
2023-02-18T05:03:29.825Z,1.00
2023-02-18T05:04:32.859Z,0.80
2023-02-18T05:05:35.824Z,0.88
2023-02-18T05:06:39.864Z,0.80
2023-02-18T05:07:42.471Z,0.85
2023-02-18T05:08:45.438Z,1.30
2023-02-18T05:09:48.568Z,0.80
2023-02-18T05:10:51.871Z,0.82
2023-02-18T05:11:54.861Z,0.85
2023-02-18T05:12:56.813Z,0.73
2023-02-18T05:13:59.718Z,0.88
2023-02-18T05:15:01.739Z,0.90
2023-02-18T05:16:04.853Z,0.80
2023-02-18T05:17:06.840Z,0.88
2023-02-18T05:18:09.892Z,1.02
2023-02-18T05:19:15.051Z,1.40
2023-02-18T05:20:18.202Z,0.85
2023-02-18T05:21:20.163Z,0.70
2023-02-18T05:22:23.106Z,0.90
2023-02-18T05:23:25.943Z,1.00
2023-02-18T05:24:28.960Z,1.08
2023-02-18T05:25:31.024Z,1.25
2023-02-18T05:26:35.488Z,1.00
2023-02-18T05:27:37.466Z,1.08
2023-02-18T05:28:40.432Z,1.02
2023-02-18T05:29:42.530Z,1.02
2023-02-18T05:30:45.491Z,0.80
2023-02-18T05:31:48.642Z,0.80
2023-02-18T05:32:50.697Z,0.77
2023-02-18T05:33:53.622Z,0.90
2023-02-18T05:34:55.542Z,1.08
2023-02-18T05:35:58.512Z,1.05
2023-02-18T05:37:00.436Z,0.80
2023-02-18T05:38:03.395Z,0.90
2023-02-18T05:39:05.347Z,0.85
2023-02-18T05:40:09.308Z,1.10
2023-02-18T05:41:12.220Z,0.77
2023-02-18T05:42:15.539Z,1.15
2023-02-18T05:43:18.600Z,0.95
2023-02-18T05:44:32.605Z,1.02
2023-02-18T05:45:35.808Z,1.05
2023-02-18T05:46:37.716Z,0.75
2023-02-18T05:47:40.650Z,0.82
2023-02-18T05:48:42.636Z,0.60
2023-02-18T05:49:45.919Z,0.82
2023-02-18T05:50:47.911Z,0.80
2023-02-18T05:51:50.857Z,0.98
2023-02-18T05:52:52.871Z,0.60
2023-02-18T05:53:56.149Z,0.85
2023-02-18T05:54:58.155Z,1.20
2023-02-18T05:56:01.083Z,1.02
2023-02-18T05:57:03.413Z,0.90
2023-02-18T05:58:07.940Z,1.00
2023-02-18T05:59:10.010Z,0.73
2023-02-18T06:00:13.991Z,1.27
2023-02-18T06:01:16.039Z,0.80
2023-02-18T06:02:19.037Z,1.00
2023-02-18T06:03:20.955Z,1.05
2023-02-18T06:04:24.142Z,0.82
2023-02-18T06:05:26.098Z,1.10
2023-02-18T06:06:29.020Z,0.93
2023-02-18T06:07:30.975Z,1.20
2023-02-18T06:08:33.939Z,1.30
2023-02-18T06:09:36.170Z,1.25
2023-02-18T06:10:41.032Z,1.30
2023-02-18T06:11:43.117Z,0.98
2023-02-18T06:12:46.274Z,1.15
2023-02-18T06:13:49.604Z,1.00
2023-02-18T06:14:52.558Z,1.45
2023-02-18T06:15:55.076Z,1.40
2023-02-18T06:16:58.111Z,1.30
2023-02-18T06:18:00.060Z,1.00
2023-02-18T06:19:02.998Z,1.40
2023-02-18T06:20:05.916Z,1.60
2023-02-18T06:21:08.839Z,1.13
2023-02-18T06:22:11.146Z,1.35
2023-02-18T06:23:14.041Z,1.42
2023-02-18T06:24:15.951Z,0.80
2023-02-18T06:25:18.908Z,1.42
2023-02-18T06:26:20.913Z,1.48
2023-02-18T06:27:23.857Z,1.30
2023-02-18T06:28:25.834Z,1.30
2023-02-18T06:29:31.288Z,1.17
2023-02-18T06:30:33.802Z,1.30
2023-02-18T06:31:36.818Z,1.75
2023-02-18T06:32:38.812Z,1.58
2023-02-18T06:33:41.764Z,1.55
2023-02-18T06:34:43.710Z,1.58
2023-02-18T06:35:54.370Z,1.15
2023-02-18T06:36:56.646Z,1.23
2023-02-18T06:37:59.657Z,1.33
2023-02-18T06:39:03.470Z,1.30
2023-02-18T06:40:07.886Z,1.35
2023-02-18T06:41:10.359Z,1.52
2023-02-18T06:42:13.301Z,1.25
2023-02-18T06:43:15.206Z,1.05
2023-02-18T06:44:18.229Z,1.60
2023-02-18T06:45:22.067Z,1.42
2023-02-18T06:46:25.393Z,1.73
2023-02-18T06:47:27.377Z,1.40
2023-02-18T06:48:30.294Z,1.83
2023-02-18T06:49:32.280Z,1.45
2023-02-18T06:50:35.212Z,1.67
2023-02-18T06:51:37.171Z,1.65
2023-02-18T06:52:40.127Z,1.20
2023-02-18T06:53:42.371Z,1.60
2023-02-18T06:54:45.402Z,1.70
2023-02-18T06:55:47.317Z,1.70
2023-02-18T06:56:50.932Z,1.60
2023-02-18T06:57:52.903Z,1.45
2023-02-18T06:58:55.936Z,1.58
2023-02-18T06:59:57.931Z,2.95
2023-02-18T07:01:02.583Z,3.58
2023-02-18T07:02:04.632Z,5.15
2023-02-18T07:03:07.998Z,4.20
2023-02-18T07:04:09.992Z,5.10
2023-02-18T07:05:13.066Z,3.70
2023-02-18T07:06:15.035Z,1.95
2023-02-18T07:07:17.930Z,1.85
2023-02-18T07:08:19.871Z,2.42
2023-02-18T07:09:22.828Z,4.18
2023-02-18T07:10:25.086Z,3.25
2023-02-18T07:11:28.168Z,3.20
2023-02-18T07:12:30.120Z,2.85
2023-02-18T07:13:33.049Z,3.53
2023-02-18T07:14:35.008Z,3.28
2023-02-18T07:15:37.972Z,3.33
2023-02-18T07:16:42.343Z,3.15
2023-02-18T07:17:44.305Z,3.40
2023-02-18T07:18:47.779Z,2.80
2023-02-18T07:19:49.721Z,2.40
2023-02-18T07:20:52.653Z,1.92
2023-02-18T07:21:57.542Z,1.50
2023-02-18T07:23:00.493Z,1.80
2023-02-18T07:24:02.407Z,1.55
2023-02-18T07:25:05.545Z,1.75
2023-02-18T07:26:10.767Z,1.88
2023-02-18T07:27:13.903Z,1.30
2023-02-18T07:28:17.858Z,2.03
2023-02-18T07:29:19.752Z,2.10
2023-02-18T07:30:22.898Z,2.42
2023-02-18T07:31:26.194Z,2.13
2023-02-18T07:32:29.615Z,2.22
2023-02-18T07:33:33.262Z,2.53
2023-02-18T07:34:35.215Z,2.00
2023-02-18T07:35:38.173Z,2.17
2023-02-18T07:36:40.171Z,1.35
2023-02-18T07:37:46.118Z,1.48
2023-02-18T07:38:48.019Z,1.60
2023-02-18T07:39:50.939Z,1.30
2023-02-18T07:40:53.622Z,1.45
2023-02-18T07:41:56.853Z,1.25
2023-02-18T07:42:58.779Z,1.70
2023-02-18T07:44:01.674Z,1.42
2023-02-18T07:45:03.834Z,1.60
2023-02-18T07:46:07.897Z,1.60
2023-02-18T07:47:15.676Z,1.45
2023-02-18T07:48:19.985Z,1.58
2023-02-18T07:49:21.951Z,1.33
2023-02-18T07:50:24.909Z,1.33
2023-02-18T07:51:26.873Z,1.45
2023-02-18T07:52:29.853Z,1.50
2023-02-18T07:53:32.864Z,1.33
2023-02-18T07:54:35.451Z,1.38
2023-02-18T07:55:50.324Z,1.73
2023-02-18T07:56:52.772Z,2.25
2023-02-18T07:58:00.882Z,3.65
2023-02-18T07:59:03.920Z,3.47
2023-02-18T08:00:07.163Z,2.70
2023-02-18T08:01:11.616Z,1.90
2023-02-18T08:02:18.018Z,1.88
2023-02-18T08:03:23.871Z,2.50
2023-02-18T08:04:25.930Z,1.77
2023-02-18T08:05:28.887Z,1.80
2023-02-18T08:06:34.889Z,2.40
2023-02-18T08:07:38.158Z,1.77
2023-02-18T08:08:40.214Z,1.65
2023-02-18T08:09:43.261Z,1.63
2023-02-18T08:10:45.248Z,1.52
2023-02-18T08:11:48.162Z,1.52
2023-02-18T08:12:50.152Z,1.30
2023-02-18T08:13:56.340Z,1.25
2023-02-18T08:14:58.379Z,1.40
2023-02-18T08:16:01.342Z,1.20
2023-02-18T08:17:04.290Z,1.00
2023-02-18T08:18:07.966Z,1.38
2023-02-18T08:19:12.670Z,1.40
2023-02-18T08:20:14.901Z,1.20
2023-02-18T08:21:18.762Z,1.00
2023-02-18T08:22:20.682Z,1.15
2023-02-18T08:23:25.595Z,1.05
2023-02-18T08:24:28.599Z,1.17
2023-02-18T08:25:30.682Z,1.15
2023-02-18T08:26:33.680Z,1.00
2023-02-18T08:27:36.588Z,1.48
2023-02-18T08:28:38.536Z,1.08
2023-02-18T08:29:41.744Z,1.15
2023-02-18T08:30:45.848Z,1.45
2023-02-18T08:31:49.014Z,0.75
2023-02-18T08:32:51.195Z,0.80
2023-02-18T08:33:55.098Z,0.90
2023-02-18T08:34:58.445Z,1.00
2023-02-18T08:36:01.487Z,1.00
2023-02-18T08:37:04.265Z,1.05
2023-02-18T08:38:07.275Z,1.30
2023-02-18T08:39:09.281Z,1.35
2023-02-18T08:40:13.728Z,1.20
2023-02-18T08:41:16.316Z,1.45
2023-02-18T08:42:19.347Z,0.82
2023-02-18T08:43:22.289Z,0.85
2023-02-18T08:44:24.458Z,0.98
2023-02-18T08:45:27.492Z,0.93
2023-02-18T08:46:35.683Z,1.10
2023-02-18T08:48:18.593Z,1.30
2023-02-18T08:49:01.169Z,0.98
2023-02-18T08:50:05.040Z,1.42
2023-02-18T08:51:18.943Z,1.00
2023-02-18T08:52:22.273Z,1.02
2023-02-18T08:53:24.368Z,1.02
2023-02-18T08:54:27.335Z,1.00
2023-02-18T08:55:29.838Z,0.82
2023-02-18T08:56:33.588Z,0.90
2023-02-18T08:57:35.663Z,1.02
2023-02-18T08:58:38.769Z,1.13
2023-02-18T08:59:40.727Z,1.33
2023-02-18T09:00:44.521Z,0.90
2023-02-18T09:01:46.521Z,1.00
2023-02-18T09:02:49.580Z,0.95
2023-02-18T09:03:51.576Z,0.85
2023-02-18T09:04:54.619Z,1.10
2023-02-18T09:05:59.338Z,0.93
2023-02-18T09:07:02.305Z,1.00
2023-02-18T09:08:04.559Z,1.13
2023-02-18T09:09:07.556Z,0.95
2023-02-18T09:10:10.728Z,0.95
2023-02-18T09:11:13.691Z,1.08
2023-02-18T09:12:15.651Z,1.10
2023-02-18T09:13:18.569Z,0.80
2023-02-18T09:14:21.398Z,1.00
2023-02-18T09:15:24.508Z,1.17
2023-02-18T09:16:28.242Z,0.90
2023-02-18T09:17:31.497Z,1.42
2023-02-18T09:18:35.465Z,1.38
2023-02-18T09:19:38.390Z,1.05
2023-02-18T09:20:40.615Z,1.10
2023-02-18T09:21:45.079Z,1.20
2023-02-18T09:22:47.237Z,1.30
2023-02-18T09:23:50.976Z,1.40
2023-02-18T09:24:53.973Z,1.40
2023-02-18T09:25:56.211Z,0.90
2023-02-18T09:26:59.141Z,0.98
2023-02-18T09:28:01.123Z,1.00
2023-02-18T09:29:04.128Z,0.98
2023-02-18T09:30:07.284Z,0.93
2023-02-18T09:31:13.618Z,1.00
2023-02-18T09:32:25.467Z,1.10
2023-02-18T09:33:37.428Z,1.13
2023-02-18T09:34:39.381Z,1.13
2023-02-18T09:35:42.928Z,1.02
2023-02-18T09:36:47.248Z,1.05
2023-02-18T09:37:49.167Z,1.17
2023-02-18T09:38:52.560Z,1.10
2023-02-18T09:39:54.553Z,1.20
2023-02-18T09:40:58.932Z,1.38
2023-02-18T09:42:04.237Z,0.70
2023-02-18T09:43:07.972Z,1.02
2023-02-18T09:44:16.640Z,1.27
2023-02-18T09:45:19.766Z,1.00
2023-02-18T09:46:26.130Z,1.00
2023-02-18T09:47:34.157Z,1.02
2023-02-18T09:48:37.386Z,1.00
2023-02-18T09:49:44.724Z,1.50
2023-02-18T09:50:51.815Z,2.00
2023-02-18T09:51:57.647Z,1.00
2023-02-18T09:53:01.100Z,1.25
2023-02-18T09:54:04.086Z,1.50
2023-02-18T09:55:21.560Z,1.95
2023-02-18T09:56:30.128Z,1.30
2023-02-18T09:57:41.341Z,0.60
2023-02-18T09:58:46.666Z,0.90
2023-02-18T09:59:51.262Z,1.38
2023-02-18T10:00:58.563Z,0.80
2023-02-18T10:02:02.482Z,1.02
2023-02-18T10:03:09.227Z,1.02
2023-02-18T10:04:15.902Z,1.75
2023-02-18T10:05:19.132Z,1.70
2023-02-18T10:06:25.442Z,1.20
2023-02-18T10:07:32.715Z,1.17
2023-02-18T10:08:37.497Z,1.23
2023-02-18T10:09:42.172Z,0.82
2023-02-18T10:10:46.593Z,1.17
2023-02-18T10:11:52.415Z,1.00
2023-02-18T10:12:56.854Z,0.80
2023-02-18T10:14:02.603Z,0.90
2023-02-18T10:15:16.993Z,1.23
2023-02-18T10:16:21.944Z,0.85
2023-02-18T10:17:27.258Z,1.00
2023-02-18T10:18:32.536Z,0.75
2023-02-18T10:19:40.932Z,0.93
2023-02-18T10:20:43.089Z,0.90
2023-02-18T10:21:46.543Z,0.90
2023-02-18T10:22:50.531Z,1.10
2023-02-18T10:24:00.499Z,0.90
2023-02-18T10:25:04.776Z,0.80
2023-02-18T10:26:13.730Z,0.75
2023-02-18T10:27:21.886Z,0.95
2023-02-18T10:28:26.815Z,0.70
2023-02-18T10:29:30.839Z,1.00
2023-02-18T10:30:38.762Z,1.17
2023-02-18T10:31:46.474Z,0.95
2023-02-18T10:32:50.580Z,0.80
2023-02-18T10:33:59.399Z,0.90
2023-02-18T10:35:16.454Z,0.90
2023-02-18T10:36:26.042Z,0.88
2023-02-18T10:37:50.753Z,0.90
2023-02-18T10:39:32.157Z,1.10
2023-02-18T10:40:48.888Z,0.90
2023-02-18T10:42:02.148Z,1.17
2023-02-18T10:43:11.419Z,0.88
2023-02-18T10:44:23.046Z,0.85
2023-02-18T10:45:36.915Z,1.23
2023-02-18T10:46:48.529Z,1.08
2023-02-18T10:47:59.836Z,1.17
2023-02-18T10:49:12.570Z,1.00
2023-02-18T10:50:26.226Z,1.05
2023-02-18T10:51:31.852Z,0.60
2023-02-18T10:52:41.390Z,0.98
2023-02-18T10:53:45.648Z,1.20
2023-02-18T10:54:58.936Z,1.50
2023-02-18T10:56:02.086Z,1.05
2023-02-18T10:57:04.734Z,0.80
2023-02-18T10:58:27.263Z,1.00
2023-02-18T10:59:34.069Z,0.73
2023-02-18T11:00:39.654Z,0.75
2023-02-18T11:01:44.695Z,0.80
2023-02-18T11:02:47.491Z,1.15
2023-02-18T11:03:52.208Z,0.77
2023-02-18T11:04:54.345Z,1.00
2023-02-18T11:05:58.102Z,0.70
2023-02-18T11:07:05.443Z,0.75
2023-02-18T11:08:11.837Z,1.10
2023-02-18T11:09:36.066Z,0.90
2023-02-18T11:10:45.078Z,0.80
2023-02-18T11:11:50.708Z,0.88
2023-02-18T11:12:58.987Z,0.70
2023-02-18T11:14:04.291Z,0.80
2023-02-18T11:15:18.393Z,0.77
2023-02-18T11:16:24.272Z,0.90
2023-02-18T11:17:30.002Z,1.00
2023-02-18T11:18:40.405Z,0.70
2023-02-18T11:19:42.644Z,0.70
2023-02-18T11:20:57.822Z,0.95
2023-02-18T11:22:12.035Z,0.63
2023-02-18T11:23:20.515Z,1.00
2023-02-18T11:24:22.426Z,0.80
2023-02-18T11:25:28.554Z,0.75
2023-02-18T11:26:35.257Z,1.08
2023-02-18T11:27:43.297Z,0.80
2023-02-18T11:28:48.064Z,0.80
2023-02-18T11:29:54.163Z,0.77
2023-02-18T11:31:00.089Z,0.90
2023-02-18T11:32:03.466Z,0.88
2023-02-18T11:33:09.570Z,0.90
2023-02-18T11:34:19.625Z,0.68
2023-02-18T11:35:25.886Z,0.98
2023-02-18T11:36:31.676Z,0.70
2023-02-18T11:37:36.031Z,1.10
2023-02-18T11:38:46.337Z,0.70
2023-02-18T11:39:52.366Z,0.77
2023-02-18T11:40:56.175Z,0.90
2023-02-18T11:42:04.653Z,1.08
2023-02-18T11:43:11.859Z,0.70
2023-02-18T11:44:23.144Z,0.93
2023-02-18T11:45:31.216Z,0.80
2023-02-18T11:46:33.573Z,0.80
2023-02-18T11:47:38.175Z,0.80
2023-02-18T11:48:40.439Z,0.80
2023-02-18T11:49:45.836Z,0.80
2023-02-18T11:50:52.272Z,0.80
2023-02-18T11:51:55.196Z,1.10
2023-02-18T11:52:59.780Z,1.23
2023-02-18T11:54:03.165Z,0.80
2023-02-18T11:55:08.722Z,0.82
2023-02-18T11:56:20.303Z,1.02
2023-02-18T11:57:26.311Z,1.00
2023-02-18T11:58:39.388Z,1.13
2023-02-18T11:59:43.446Z,1.10
2023-02-18T12:00:47.366Z,0.90
2023-02-18T12:01:54.025Z,1.00
2023-02-18T12:02:58.399Z,0.80
2023-02-18T12:04:08.190Z,1.38
2023-02-18T12:05:17.422Z,0.70
2023-02-18T12:06:26.106Z,1.40
2023-02-18T12:07:33.266Z,0.95
2023-02-18T12:08:46.540Z,0.95
2023-02-18T12:09:52.962Z,0.75
2023-02-18T12:11:02.347Z,0.85
2023-02-18T12:12:08.926Z,0.90
2023-02-18T12:13:24.589Z,0.85
2023-02-18T12:14:26.710Z,0.90
2023-02-18T12:15:49.924Z,0.90
2023-02-18T12:17:14.586Z,0.52
2023-02-18T12:18:42.885Z,0.90
2023-02-18T12:20:20.016Z,0.90
2023-02-18T12:21:41.582Z,1.20
2023-02-18T12:22:44.875Z,0.80
2023-02-18T12:24:01.301Z,0.80
2023-02-18T12:25:22.699Z,0.82
2023-02-18T12:26:29.986Z,0.80
2023-02-18T12:27:42.053Z,0.90
2023-02-18T12:29:19.072Z,0.70
2023-02-18T12:30:46.739Z,0.80
2023-02-18T12:32:16.143Z,1.05
2023-02-18T12:33:30.484Z,0.65
2023-02-18T12:34:48.325Z,0.65
2023-02-18T12:36:04.242Z,0.70
2023-02-18T12:37:29.734Z,0.70
2023-02-18T12:38:53.453Z,0.70
2023-02-18T12:40:11.097Z,1.00
2023-02-18T12:41:35.951Z,0.73
2023-02-18T12:42:52.794Z,0.85
2023-02-18T12:44:05.890Z,1.05
2023-02-18T12:45:33.578Z,0.70
2023-02-18T12:46:51.907Z,0.80
2023-02-18T12:48:13.272Z,0.70
2023-02-18T12:49:41.739Z,0.70
2023-02-18T12:51:05.087Z,0.88
2023-02-18T12:52:20.336Z,0.77
2023-02-18T12:53:52.144Z,0.93
2023-02-18T12:55:16.875Z,0.50
2023-02-18T12:56:42.009Z,1.05
2023-02-18T12:57:52.424Z,0.73
2023-02-18T12:59:07.260Z,0.90
2023-02-18T13:00:52.121Z,0.80
2023-02-18T13:02:04.536Z,0.65
2023-02-18T13:03:37.192Z,0.90
2023-02-18T13:04:57.166Z,0.77
2023-02-18T13:06:08.896Z,0.70
2023-02-18T13:07:45.195Z,0.70
2023-02-18T13:08:57.891Z,0.60
2023-02-18T13:10:39.844Z,1.00
2023-02-18T13:11:50.572Z,0.75
2023-02-18T13:13:01.291Z,0.70
2023-02-18T13:14:11.679Z,0.70
2023-02-18T13:15:20.816Z,0.70
2023-02-18T13:16:23.537Z,1.00
2023-02-18T13:17:30.507Z,0.75
2023-02-18T13:18:35.932Z,0.70
2023-02-18T13:19:50.910Z,0.70
2023-02-18T13:20:56.171Z,1.00
2023-02-18T13:22:02.629Z,0.75
2023-02-18T13:23:05.814Z,0.80
2023-02-18T13:24:13.750Z,0.90
2023-02-18T13:25:16.992Z,0.60
2023-02-18T13:26:22.338Z,0.70
2023-02-18T13:27:33.643Z,0.77
2023-02-18T13:28:43.573Z,0.68
2023-02-18T13:29:54.664Z,0.93
2023-02-18T13:31:11.580Z,0.60
2023-02-18T13:32:20.315Z,0.70
2023-02-18T13:33:30.182Z,0.82
2023-02-18T13:34:37.322Z,0.80
2023-02-18T13:35:44.633Z,0.82
2023-02-18T13:36:55.960Z,0.60
2023-02-18T13:38:13.588Z,0.70
2023-02-18T13:39:20.413Z,0.75
2023-02-18T13:40:27.663Z,0.68
2023-02-18T13:41:38.980Z,0.80
2023-02-18T13:42:41.862Z,0.73
2023-02-18T13:43:45.662Z,0.70
2023-02-18T13:45:26.136Z,0.70
2023-02-18T13:46:28.225Z,0.90
2023-02-18T13:47:40.293Z,0.70
2023-02-18T13:48:52.402Z,0.60
2023-02-18T13:49:55.690Z,0.80
2023-02-18T13:51:03.626Z,0.80
2023-02-18T13:52:07.246Z,0.57
2023-02-18T13:53:25.676Z,1.00
2023-02-18T13:54:32.605Z,0.65
2023-02-18T13:55:39.695Z,0.73
2023-02-18T13:56:46.338Z,1.02
2023-02-18T13:57:53.351Z,0.80
2023-02-18T13:59:01.598Z,0.90
2023-02-18T14:00:14.699Z,1.10
2023-02-18T14:01:41.095Z,0.95
2023-02-18T14:02:57.196Z,0.70
2023-02-18T14:04:02.629Z,0.80
2023-02-18T14:05:23.262Z,1.00
2023-02-18T14:06:27.106Z,0.80
2023-02-18T14:07:47.098Z,0.70
2023-02-18T14:08:50.371Z,0.75
2023-02-18T14:09:53.787Z,0.70
2023-02-18T14:11:30.041Z,1.00
2023-02-18T14:12:41.311Z,0.63
2023-02-18T14:13:48.545Z,0.60
2023-02-18T14:14:51.288Z,1.00
2023-02-18T14:16:01.291Z,0.80
2023-02-18T14:17:48.566Z,0.52
2023-02-18T14:18:59.458Z,0.75
2023-02-18T14:20:43.446Z,0.70
2023-02-18T14:21:46.393Z,0.60
2023-02-18T14:22:50.315Z,0.63
2023-02-18T14:24:03.677Z,0.77
2023-02-18T14:25:21.905Z,1.02
2023-02-18T14:26:29.862Z,1.02
2023-02-18T14:27:32.859Z,0.80
2023-02-18T14:28:41.440Z,0.65
2023-02-18T14:29:44.597Z,0.80
2023-02-18T14:30:47.387Z,0.98
2023-02-18T14:31:58.520Z,0.80
2023-02-18T14:33:02.271Z,1.00
2023-02-18T14:34:27.137Z,1.25
2023-02-18T14:35:36.051Z,1.00
2023-02-18T14:36:46.445Z,0.90
2023-02-18T14:38:24.590Z,0.80
2023-02-18T14:39:37.732Z,1.17
2023-02-18T14:41:07.943Z,0.93
2023-02-18T14:42:23.956Z,0.85
2023-02-18T14:43:52.690Z,0.77
2023-02-18T14:45:14.727Z,1.00
2023-02-18T14:46:31.140Z,0.68
2023-02-18T14:47:53.101Z,0.85
2023-02-18T14:49:18.481Z,1.00
2023-02-18T14:50:21.873Z,0.90
2023-02-18T14:51:28.126Z,0.75